sensor_id;sensor_type;location;lat;lon;timestamp;P1;durP1;ratioP1;P2;durP2;ratioP2
8293;SDS011;4185;41.506;24.938;2023-06-19T00:00:00;6.73;;;3.40;;
8293;SDS011;4185;41.506;24.938;2023-06-19T00:02:32;3.80;;;3.17;;
8293;SDS011;4185;41.506;24.938;2023-06-19T00:04:58;4.23;;;3.27;;
8293;SDS011;4185;41.506;24.938;2023-06-19T00:07:25;6.53;;;3.70;;
8293;SDS011;4185;41.506;24.938;2023-06-19T00:09:53;5.77;;;3.83;;
8293;SDS011;4185;41.506;24.938;2023-06-19T00:12:20;5.17;;;3.60;;
8293;SDS011;4185;41.506;24.938;2023-06-19T00:14:47;5.77;;;3.90;;
8293;SDS011;4185;41.506;24.938;2023-06-19T00:17:13;5.67;;;3.40;;
8293;SDS011;4185;41.506;24.938;2023-06-19T00:19:41;4.83;;;3.33;;
8293;SDS011;4185;41.506;24.938;2023-06-19T00:22:08;3.70;;;3.10;;
8293;SDS011;4185;41.506;24.938;2023-06-19T00:24:35;3.67;;;3.20;;
8293;SDS011;4185;41.506;24.938;2023-06-19T00:27:03;4.30;;;3.33;;
8293;SDS011;4185;41.506;24.938;2023-06-19T00:29:31;5.07;;;3.43;;
8293;SDS011;4185;41.506;24.938;2023-06-19T00:31:59;6.23;;;3.97;;
8293;SDS011;4185;41.506;24.938;2023-06-19T00:34:28;5.43;;;3.93;;
8293;SDS011;4185;41.506;24.938;2023-06-19T00:36:55;5.17;;;3.53;;
8293;SDS011;4185;41.506;24.938;2023-06-19T00:39:22;3.57;;;3.27;;
8293;SDS011;4185;41.506;24.938;2023-06-19T00:41:51;3.93;;;3.27;;
8293;SDS011;4185;41.506;24.938;2023-06-19T00:44:19;5.27;;;3.23;;
8293;SDS011;4185;41.506;24.938;2023-06-19T00:46:46;4.53;;;3.63;;
8293;SDS011;4185;41.506;24.938;2023-06-19T00:49:13;4.03;;;3.63;;
8293;SDS011;4185;41.506;24.938;2023-06-19T00:51:41;3.97;;;3.23;;
8293;SDS011;4185;41.506;24.938;2023-06-19T00:54:08;4.33;;;3.30;;
8293;SDS011;4185;41.506;24.938;2023-06-19T00:56:35;5.10;;;3.60;;
8293;SDS011;4185;41.506;24.938;2023-06-19T00:59:05;3.77;;;3.40;;
8293;SDS011;4185;41.506;24.938;2023-06-19T01:01:38;4.27;;;3.73;;
8293;SDS011;4185;41.506;24.938;2023-06-19T01:04:06;4.90;;;3.77;;
8293;SDS011;4185;41.506;24.938;2023-06-19T01:06:35;4.00;;;3.60;;
8293;SDS011;4185;41.506;24.938;2023-06-19T01:09:10;4.33;;;3.43;;
8293;SDS011;4185;41.506;24.938;2023-06-19T01:11:43;5.40;;;3.30;;
8293;SDS011;4185;41.506;24.938;2023-06-19T01:14:14;4.20;;;3.30;;
8293;SDS011;4185;41.506;24.938;2023-06-19T01:16:46;5.20;;;3.67;;
8293;SDS011;4185;41.506;24.938;2023-06-19T01:19:15;4.53;;;3.13;;
8293;SDS011;4185;41.506;24.938;2023-06-19T01:21:44;5.90;;;3.63;;
8293;SDS011;4185;41.506;24.938;2023-06-19T01:24:13;6.37;;;3.70;;
8293;SDS011;4185;41.506;24.938;2023-06-19T01:26:40;6.17;;;3.70;;
8293;SDS011;4185;41.506;24.938;2023-06-19T01:29:11;8.10;;;4.07;;
8293;SDS011;4185;41.506;24.938;2023-06-19T01:31:41;4.90;;;3.60;;
8293;SDS011;4185;41.506;24.938;2023-06-19T01:34:11;4.50;;;3.17;;
8293;SDS011;4185;41.506;24.938;2023-06-19T01:36:43;7.40;;;3.53;;
8293;SDS011;4185;41.506;24.938;2023-06-19T01:39:12;4.43;;;3.60;;
8293;SDS011;4185;41.506;24.938;2023-06-19T01:41:39;5.77;;;3.50;;
8293;SDS011;4185;41.506;24.938;2023-06-19T01:44:08;5.43;;;4.03;;
8293;SDS011;4185;41.506;24.938;2023-06-19T01:46:35;6.70;;;4.73;;
8293;SDS011;4185;41.506;24.938;2023-06-19T01:49:05;5.73;;;4.13;;
8293;SDS011;4185;41.506;24.938;2023-06-19T01:51:33;12.73;;;4.23;;
8293;SDS011;4185;41.506;24.938;2023-06-19T01:54:00;4.67;;;3.90;;
8293;SDS011;4185;41.506;24.938;2023-06-19T01:56:30;4.60;;;3.80;;
8293;SDS011;4185;41.506;24.938;2023-06-19T01:58:57;4.97;;;3.80;;
8293;SDS011;4185;41.506;24.938;2023-06-19T02:01:24;4.63;;;3.60;;
8293;SDS011;4185;41.506;24.938;2023-06-19T02:03:51;5.30;;;3.53;;
8293;SDS011;4185;41.506;24.938;2023-06-19T02:06:18;5.80;;;3.83;;
8293;SDS011;4185;41.506;24.938;2023-06-19T02:08:46;4.93;;;3.80;;
8293;SDS011;4185;41.506;24.938;2023-06-19T02:11:13;5.67;;;3.73;;
8293;SDS011;4185;41.506;24.938;2023-06-19T02:13:41;4.47;;;3.53;;
8293;SDS011;4185;41.506;24.938;2023-06-19T02:16:08;4.37;;;3.60;;
8293;SDS011;4185;41.506;24.938;2023-06-19T02:18:35;5.57;;;3.83;;
8293;SDS011;4185;41.506;24.938;2023-06-19T02:21:01;4.50;;;3.57;;
8293;SDS011;4185;41.506;24.938;2023-06-19T02:23:28;6.60;;;4.17;;
8293;SDS011;4185;41.506;24.938;2023-06-19T02:25:55;6.27;;;4.10;;
8293;SDS011;4185;41.506;24.938;2023-06-19T02:28:22;6.47;;;3.80;;
8293;SDS011;4185;41.506;24.938;2023-06-19T02:30:50;7.07;;;3.93;;
8293;SDS011;4185;41.506;24.938;2023-06-19T02:33:17;4.07;;;3.67;;
8293;SDS011;4185;41.506;24.938;2023-06-19T02:35:43;4.43;;;3.97;;
8293;SDS011;4185;41.506;24.938;2023-06-19T02:38:10;6.50;;;4.27;;
8293;SDS011;4185;41.506;24.938;2023-06-19T02:40:37;4.80;;;4.00;;
8293;SDS011;4185;41.506;24.938;2023-06-19T02:43:04;5.50;;;4.20;;
8293;SDS011;4185;41.506;24.938;2023-06-19T02:45:31;6.87;;;3.63;;
8293;SDS011;4185;41.506;24.938;2023-06-19T02:47:59;6.30;;;4.30;;
8293;SDS011;4185;41.506;24.938;2023-06-19T02:50:26;7.93;;;4.27;;
8293;SDS011;4185;41.506;24.938;2023-06-19T02:52:52;7.63;;;4.00;;
8293;SDS011;4185;41.506;24.938;2023-06-19T02:55:19;6.53;;;4.13;;
8293;SDS011;4185;41.506;24.938;2023-06-19T02:57:46;4.40;;;3.77;;
8293;SDS011;4185;41.506;24.938;2023-06-19T03:00:13;6.77;;;4.40;;
8293;SDS011;4185;41.506;24.938;2023-06-19T03:02:40;5.57;;;4.30;;
8293;SDS011;4185;41.506;24.938;2023-06-19T03:05:10;6.97;;;4.50;;
8293;SDS011;4185;41.506;24.938;2023-06-19T03:07:39;6.90;;;4.87;;
8293;SDS011;4185;41.506;24.938;2023-06-19T03:10:06;10.37;;;4.60;;
8293;SDS011;4185;41.506;24.938;2023-06-19T03:12:34;6.87;;;4.30;;
8293;SDS011;4185;41.506;24.938;2023-06-19T03:15:00;6.83;;;4.13;;
8293;SDS011;4185;41.506;24.938;2023-06-19T03:17:27;4.53;;;4.13;;
8293;SDS011;4185;41.506;24.938;2023-06-19T03:19:54;5.20;;;4.40;;
8293;SDS011;4185;41.506;24.938;2023-06-19T03:22:23;6.37;;;3.97;;
8293;SDS011;4185;41.506;24.938;2023-06-19T03:24:50;4.10;;;3.70;;
8293;SDS011;4185;41.506;24.938;2023-06-19T03:27:17;8.50;;;4.40;;
8293;SDS011;4185;41.506;24.938;2023-06-19T03:29:43;5.97;;;3.97;;
8293;SDS011;4185;41.506;24.938;2023-06-19T03:32:10;5.70;;;4.33;;
8293;SDS011;4185;41.506;24.938;2023-06-19T03:34:37;6.13;;;4.33;;
8293;SDS011;4185;41.506;24.938;2023-06-19T03:37:04;6.07;;;3.77;;
8293;SDS011;4185;41.506;24.938;2023-06-19T03:39:32;4.33;;;3.93;;
8293;SDS011;4185;41.506;24.938;2023-06-19T03:41:59;7.83;;;4.10;;
8293;SDS011;4185;41.506;24.938;2023-06-19T03:44:26;5.60;;;3.87;;
8293;SDS011;4185;41.506;24.938;2023-06-19T03:46:52;6.10;;;4.10;;
8293;SDS011;4185;41.506;24.938;2023-06-19T03:49:19;5.60;;;3.93;;
8293;SDS011;4185;41.506;24.938;2023-06-19T03:51:46;5.67;;;4.10;;
8293;SDS011;4185;41.506;24.938;2023-06-19T03:54:12;4.90;;;3.83;;
8293;SDS011;4185;41.506;24.938;2023-06-19T03:56:41;5.87;;;4.23;;
8293;SDS011;4185;41.506;24.938;2023-06-19T03:59:07;5.17;;;4.07;;
8293;SDS011;4185;41.506;24.938;2023-06-19T04:01:34;6.13;;;4.40;;
8293;SDS011;4185;41.506;24.938;2023-06-19T04:04:01;7.23;;;4.63;;
8293;SDS011;4185;41.506;24.938;2023-06-19T04:06:28;9.03;;;4.30;;
8293;SDS011;4185;41.506;24.938;2023-06-19T04:08:54;9.10;;;5.20;;
8293;SDS011;4185;41.506;24.938;2023-06-19T04:11:21;6.40;;;3.90;;
8293;SDS011;4185;41.506;24.938;2023-06-19T04:13:49;8.77;;;4.93;;
8293;SDS011;4185;41.506;24.938;2023-06-19T04:16:16;6.43;;;4.73;;
8293;SDS011;4185;41.506;24.938;2023-06-19T04:18:43;5.80;;;4.67;;
8293;SDS011;4185;41.506;24.938;2023-06-19T04:21:09;8.10;;;5.67;;
8293;SDS011;4185;41.506;24.938;2023-06-19T04:23:36;6.73;;;5.00;;
8293;SDS011;4185;41.506;24.938;2023-06-19T04:26:03;6.07;;;4.40;;
8293;SDS011;4185;41.506;24.938;2023-06-19T04:28:30;7.37;;;4.87;;
8293;SDS011;4185;41.506;24.938;2023-06-19T04:30:58;7.67;;;4.63;;
8293;SDS011;4185;41.506;24.938;2023-06-19T04:33:26;7.50;;;5.93;;
8293;SDS011;4185;41.506;24.938;2023-06-19T04:35:53;6.10;;;4.83;;
8293;SDS011;4185;41.506;24.938;2023-06-19T04:38:20;6.00;;;4.47;;
8293;SDS011;4185;41.506;24.938;2023-06-19T04:40:49;6.63;;;4.47;;
8293;SDS011;4185;41.506;24.938;2023-06-19T04:43:16;8.43;;;4.00;;
8293;SDS011;4185;41.506;24.938;2023-06-19T04:45:43;5.70;;;4.97;;
8293;SDS011;4185;41.506;24.938;2023-06-19T04:48:11;5.10;;;4.60;;
8293;SDS011;4185;41.506;24.938;2023-06-19T04:50:38;7.00;;;4.63;;
8293;SDS011;4185;41.506;24.938;2023-06-19T04:53:05;6.07;;;4.73;;
8293;SDS011;4185;41.506;24.938;2023-06-19T04:55:32;6.27;;;4.67;;
8293;SDS011;4185;41.506;24.938;2023-06-19T04:57:59;5.77;;;4.90;;
8293;SDS011;4185;41.506;24.938;2023-06-19T05:00:25;5.67;;;4.93;;
8293;SDS011;4185;41.506;24.938;2023-06-19T05:02:52;8.17;;;4.40;;
8293;SDS011;4185;41.506;24.938;2023-06-19T05:05:24;5.40;;;4.83;;
8293;SDS011;4185;41.506;24.938;2023-06-19T05:07:52;5.60;;;5.07;;
8293;SDS011;4185;41.506;24.938;2023-06-19T05:10:18;6.70;;;4.87;;
8293;SDS011;4185;41.506;24.938;2023-06-19T05:12:46;5.93;;;5.00;;
8293;SDS011;4185;41.506;24.938;2023-06-19T05:15:12;5.73;;;4.73;;
8293;SDS011;4185;41.506;24.938;2023-06-19T05:17:39;5.83;;;4.90;;
8293;SDS011;4185;41.506;24.938;2023-06-19T05:20:06;6.33;;;4.97;;
8293;SDS011;4185;41.506;24.938;2023-06-19T05:22:35;5.13;;;4.53;;
8293;SDS011;4185;41.506;24.938;2023-06-19T05:25:02;8.03;;;5.80;;
8293;SDS011;4185;41.506;24.938;2023-06-19T05:27:29;6.80;;;5.50;;
8293;SDS011;4185;41.506;24.938;2023-06-19T05:29:55;7.53;;;5.20;;
8293;SDS011;4185;41.506;24.938;2023-06-19T05:32:22;6.47;;;5.37;;
8293;SDS011;4185;41.506;24.938;2023-06-19T05:34:49;10.27;;;5.17;;
8293;SDS011;4185;41.506;24.938;2023-06-19T05:37:16;6.73;;;5.27;;
8293;SDS011;4185;41.506;24.938;2023-06-19T05:39:44;5.93;;;5.33;;
8293;SDS011;4185;41.506;24.938;2023-06-19T05:42:11;7.23;;;4.83;;
8293;SDS011;4185;41.506;24.938;2023-06-19T05:44:38;5.63;;;5.13;;
8293;SDS011;4185;41.506;24.938;2023-06-19T05:47:05;5.80;;;5.20;;
8293;SDS011;4185;41.506;24.938;2023-06-19T05:49:32;6.43;;;5.70;;
8293;SDS011;4185;41.506;24.938;2023-06-19T05:51:59;6.63;;;5.83;;
8293;SDS011;4185;41.506;24.938;2023-06-19T05:54:26;6.97;;;5.87;;
8293;SDS011;4185;41.506;24.938;2023-06-19T05:56:54;7.60;;;5.90;;
8293;SDS011;4185;41.506;24.938;2023-06-19T05:59:21;7.57;;;5.13;;
8293;SDS011;4185;41.506;24.938;2023-06-19T06:01:48;5.53;;;4.90;;
8293;SDS011;4185;41.506;24.938;2023-06-19T06:04:15;5.30;;;4.80;;
8293;SDS011;4185;41.506;24.938;2023-06-19T06:06:43;7.93;;;5.90;;
8293;SDS011;4185;41.506;24.938;2023-06-19T06:09:10;6.97;;;5.37;;
8293;SDS011;4185;41.506;24.938;2023-06-19T06:11:38;6.90;;;5.73;;
8293;SDS011;4185;41.506;24.938;2023-06-19T06:14:06;8.87;;;5.93;;
8293;SDS011;4185;41.506;24.938;2023-06-19T06:16:33;7.73;;;5.80;;
8293;SDS011;4185;41.506;24.938;2023-06-19T06:19:00;9.20;;;6.30;;
8293;SDS011;4185;41.506;24.938;2023-06-19T06:21:29;6.73;;;6.03;;
8293;SDS011;4185;41.506;24.938;2023-06-19T06:23:56;6.23;;;5.53;;
8293;SDS011;4185;41.506;24.938;2023-06-19T06:26:23;7.50;;;5.53;;
8293;SDS011;4185;41.506;24.938;2023-06-19T06:28:49;6.10;;;5.50;;
8293;SDS011;4185;41.506;24.938;2023-06-19T06:31:18;7.70;;;5.87;;
8293;SDS011;4185;41.506;24.938;2023-06-19T06:33:44;7.63;;;5.87;;
8293;SDS011;4185;41.506;24.938;2023-06-19T06:36:11;7.00;;;5.87;;
8293;SDS011;4185;41.506;24.938;2023-06-19T06:38:41;6.20;;;5.53;;
8293;SDS011;4185;41.506;24.938;2023-06-19T06:41:08;7.83;;;5.70;;
8293;SDS011;4185;41.506;24.938;2023-06-19T06:43:34;6.33;;;5.53;;
8293;SDS011;4185;41.506;24.938;2023-06-19T06:46:01;6.50;;;5.60;;
8293;SDS011;4185;41.506;24.938;2023-06-19T06:48:29;6.07;;;5.10;;
8293;SDS011;4185;41.506;24.938;2023-06-19T06:50:56;8.20;;;5.70;;
8293;SDS011;4185;41.506;24.938;2023-06-19T06:53:26;6.50;;;5.77;;
8293;SDS011;4185;41.506;24.938;2023-06-19T06:55:54;6.63;;;5.70;;
8293;SDS011;4185;41.506;24.938;2023-06-19T06:58:21;6.13;;;5.20;;
8293;SDS011;4185;41.506;24.938;2023-06-19T07:00:48;5.83;;;5.27;;
8293;SDS011;4185;41.506;24.938;2023-06-19T07:03:16;7.60;;;5.20;;
8293;SDS011;4185;41.506;24.938;2023-06-19T07:05:44;6.23;;;5.10;;
8293;SDS011;4185;41.506;24.938;2023-06-19T07:08:11;6.60;;;5.20;;
8293;SDS011;4185;41.506;24.938;2023-06-19T07:10:37;5.40;;;4.90;;
8293;SDS011;4185;41.506;24.938;2023-06-19T07:13:04;5.50;;;4.90;;
8293;SDS011;4185;41.506;24.938;2023-06-19T07:15:31;6.53;;;4.83;;
8293;SDS011;4185;41.506;24.938;2023-06-19T07:17:58;5.53;;;4.97;;
8293;SDS011;4185;41.506;24.938;2023-06-19T07:20:25;5.03;;;4.50;;
8293;SDS011;4185;41.506;24.938;2023-06-19T07:22:53;5.13;;;4.63;;
8293;SDS011;4185;41.506;24.938;2023-06-19T07:25:20;4.83;;;4.33;;
8293;SDS011;4185;41.506;24.938;2023-06-19T07:27:50;6.30;;;4.27;;
8293;SDS011;4185;41.506;24.938;2023-06-19T07:30:17;4.43;;;4.00;;
8293;SDS011;4185;41.506;24.938;2023-06-19T07:32:44;5.30;;;4.23;;
8293;SDS011;4185;41.506;24.938;2023-06-19T07:35:11;4.90;;;4.23;;
8293;SDS011;4185;41.506;24.938;2023-06-19T07:37:38;5.80;;;4.33;;
8293;SDS011;4185;41.506;24.938;2023-06-19T07:40:06;4.33;;;3.93;;
8293;SDS011;4185;41.506;24.938;2023-06-19T07:42:34;8.30;;;3.87;;
8293;SDS011;4185;41.506;24.938;2023-06-19T07:45:00;4.67;;;3.77;;
8293;SDS011;4185;41.506;24.938;2023-06-19T07:47:27;5.13;;;4.23;;
8293;SDS011;4185;41.506;24.938;2023-06-19T07:49:54;5.27;;;4.27;;
8293;SDS011;4185;41.506;24.938;2023-06-19T07:52:21;5.07;;;4.50;;
8293;SDS011;4185;41.506;24.938;2023-06-19T07:54:49;7.07;;;4.70;;
8293;SDS011;4185;41.506;24.938;2023-06-19T07:57:19;6.97;;;4.40;;
8293;SDS011;4185;41.506;24.938;2023-06-19T07:59:46;5.67;;;4.30;;
8293;SDS011;4185;41.506;24.938;2023-06-19T08:02:12;4.70;;;4.30;;
8293;SDS011;4185;41.506;24.938;2023-06-19T08:04:39;7.70;;;4.30;;
8293;SDS011;4185;41.506;24.938;2023-06-19T08:07:06;5.27;;;4.77;;
8293;SDS011;4185;41.506;24.938;2023-06-19T08:09:33;4.37;;;3.93;;
8293;SDS011;4185;41.506;24.938;2023-06-19T08:12:00;5.73;;;4.63;;
8293;SDS011;4185;41.506;24.938;2023-06-19T08:14:28;4.70;;;4.30;;
8293;SDS011;4185;41.506;24.938;2023-06-19T08:16:55;4.83;;;4.40;;
8293;SDS011;4185;41.506;24.938;2023-06-19T08:19:22;5.90;;;4.33;;
8293;SDS011;4185;41.506;24.938;2023-06-19T08:21:48;4.87;;;3.80;;
8293;SDS011;4185;41.506;24.938;2023-06-19T08:24:15;7.77;;;4.30;;
8293;SDS011;4185;41.506;24.938;2023-06-19T08:26:42;4.40;;;4.00;;
8293;SDS011;4185;41.506;24.938;2023-06-19T08:29:09;5.20;;;4.67;;
8293;SDS011;4185;41.506;24.938;2023-06-19T08:31:37;4.60;;;4.20;;
8293;SDS011;4185;41.506;24.938;2023-06-19T08:34:04;4.30;;;3.90;;
8293;SDS011;4185;41.506;24.938;2023-06-19T08:36:34;6.60;;;4.30;;
8293;SDS011;4185;41.506;24.938;2023-06-19T08:39:01;4.63;;;3.93;;
8293;SDS011;4185;41.506;24.938;2023-06-19T08:41:28;5.07;;;3.77;;
8293;SDS011;4185;41.506;24.938;2023-06-19T08:43:54;5.47;;;3.73;;
8293;SDS011;4185;41.506;24.938;2023-06-19T08:46:21;5.00;;;4.20;;
8293;SDS011;4185;41.506;24.938;2023-06-19T08:48:49;4.83;;;4.20;;
8293;SDS011;4185;41.506;24.938;2023-06-19T08:51:16;4.60;;;4.10;;
8293;SDS011;4185;41.506;24.938;2023-06-19T08:53:44;4.20;;;3.80;;
8293;SDS011;4185;41.506;24.938;2023-06-19T08:56:12;4.93;;;3.87;;
8293;SDS011;4185;41.506;24.938;2023-06-19T08:58:39;4.20;;;3.80;;
8293;SDS011;4185;41.506;24.938;2023-06-19T09:01:06;4.93;;;4.23;;
8293;SDS011;4185;41.506;24.938;2023-06-19T09:03:33;3.97;;;3.57;;
8293;SDS011;4185;41.506;24.938;2023-06-19T09:06:04;3.73;;;3.43;;
8293;SDS011;4185;41.506;24.938;2023-06-19T09:08:33;4.13;;;3.73;;
8293;SDS011;4185;41.506;24.938;2023-06-19T09:11:00;5.17;;;3.80;;
8293;SDS011;4185;41.506;24.938;2023-06-19T09:13:28;4.87;;;4.03;;
8293;SDS011;4185;41.506;24.938;2023-06-19T09:15:59;3.60;;;3.30;;
8293;SDS011;4185;41.506;24.938;2023-06-19T09:18:29;4.47;;;3.43;;
8293;SDS011;4185;41.506;24.938;2023-06-19T09:20:57;4.70;;;4.20;;
8293;SDS011;4185;41.506;24.938;2023-06-19T09:23:25;5.27;;;4.77;;
8293;SDS011;4185;41.506;24.938;2023-06-19T09:25:53;7.57;;;4.13;;
8293;SDS011;4185;41.506;24.938;2023-06-19T09:28:21;5.07;;;4.40;;
8293;SDS011;4185;41.506;24.938;2023-06-19T09:30:55;4.33;;;3.90;;
8293;SDS011;4185;41.506;24.938;2023-06-19T09:33:23;4.93;;;4.17;;
8293;SDS011;4185;41.506;24.938;2023-06-19T09:35:51;5.63;;;3.93;;
8293;SDS011;4185;41.506;24.938;2023-06-19T09:38:21;5.90;;;4.37;;
8293;SDS011;4185;41.506;24.938;2023-06-19T09:40:52;4.47;;;3.97;;
8293;SDS011;4185;41.506;24.938;2023-06-19T09:43:22;5.20;;;4.17;;
8293;SDS011;4185;41.506;24.938;2023-06-19T09:45:50;4.23;;;3.83;;
8293;SDS011;4185;41.506;24.938;2023-06-19T09:48:22;5.03;;;3.87;;
8293;SDS011;4185;41.506;24.938;2023-06-19T09:50:55;5.97;;;3.60;;
8293;SDS011;4185;41.506;24.938;2023-06-19T09:53:27;4.00;;;3.50;;
8293;SDS011;4185;41.506;24.938;2023-06-19T09:55:56;4.90;;;3.30;;
8293;SDS011;4185;41.506;24.938;2023-06-19T09:58:22;3.63;;;3.33;;
8293;SDS011;4185;41.506;24.938;2023-06-19T10:00:51;4.43;;;3.20;;
8293;SDS011;4185;41.506;24.938;2023-06-19T10:03:20;4.33;;;3.87;;
8293;SDS011;4185;41.506;24.938;2023-06-19T10:05:56;5.37;;;3.83;;
8293;SDS011;4185;41.506;24.938;2023-06-19T10:08:27;5.40;;;3.40;;
8293;SDS011;4185;41.506;24.938;2023-06-19T10:10:57;4.83;;;3.63;;
8293;SDS011;4185;41.506;24.938;2023-06-19T10:13:30;5.07;;;3.73;;
8293;SDS011;4185;41.506;24.938;2023-06-19T10:15:58;5.20;;;3.40;;
8293;SDS011;4185;41.506;24.938;2023-06-19T10:18:24;6.10;;;3.70;;
8293;SDS011;4185;41.506;24.938;2023-06-19T10:20:53;4.47;;;3.70;;
8293;SDS011;4185;41.506;24.938;2023-06-19T10:23:21;4.63;;;3.70;;
8293;SDS011;4185;41.506;24.938;2023-06-19T10:25:55;5.73;;;3.90;;
8293;SDS011;4185;41.506;24.938;2023-06-19T10:28:25;5.53;;;3.90;;
8293;SDS011;4185;41.506;24.938;2023-06-19T10:30:54;6.47;;;3.83;;
8293;SDS011;4185;41.506;24.938;2023-06-19T10:33:22;5.87;;;3.60;;
8293;SDS011;4185;41.506;24.938;2023-06-19T10:35:50;3.83;;;3.50;;
8293;SDS011;4185;41.506;24.938;2023-06-19T10:38:17;3.90;;;3.47;;
8293;SDS011;4185;41.506;24.938;2023-06-19T10:40:43;5.00;;;3.63;;
8293;SDS011;4185;41.506;24.938;2023-06-19T10:43:13;5.57;;;3.67;;
8293;SDS011;4185;41.506;24.938;2023-06-19T10:45:46;4.07;;;3.70;;
8293;SDS011;4185;41.506;24.938;2023-06-19T10:48:17;4.00;;;3.70;;
8293;SDS011;4185;41.506;24.938;2023-06-19T10:50:45;4.73;;;3.77;;
8293;SDS011;4185;41.506;24.938;2023-06-19T10:53:22;3.50;;;3.20;;
8293;SDS011;4185;41.506;24.938;2023-06-19T10:55:53;4.37;;;3.73;;
8293;SDS011;4185;41.506;24.938;2023-06-19T10:58:22;4.33;;;3.57;;
8293;SDS011;4185;41.506;24.938;2023-06-19T11:00:49;4.47;;;4.07;;
8293;SDS011;4185;41.506;24.938;2023-06-19T11:03:16;4.47;;;3.67;;
8293;SDS011;4185;41.506;24.938;2023-06-19T11:05:43;3.77;;;3.47;;
8293;SDS011;4185;41.506;24.938;2023-06-19T11:08:10;5.33;;;3.97;;
8293;SDS011;4185;41.506;24.938;2023-06-19T11:10:43;4.77;;;3.53;;
8293;SDS011;4185;41.506;24.938;2023-06-19T11:13:15;6.78;;;3.90;;
8293;SDS011;4185;41.506;24.938;2023-06-19T11:15:54;3.80;;;3.50;;
8293;SDS011;4185;41.506;24.938;2023-06-19T11:18:21;4.68;;;4.07;;
8293;SDS011;4185;41.506;24.938;2023-06-19T11:20:49;3.95;;;3.47;;
8293;SDS011;4185;41.506;24.938;2023-06-19T11:23:17;4.35;;;3.95;;
8293;SDS011;4185;41.506;24.938;2023-06-19T11:25:51;5.15;;;4.22;;
8293;SDS011;4185;41.506;24.938;2023-06-19T11:28:18;4.70;;;4.28;;
8293;SDS011;4185;41.506;24.938;2023-06-19T11:30:47;4.50;;;4.07;;
8293;SDS011;4185;41.506;24.938;2023-06-19T11:33:17;5.00;;;4.50;;
8293;SDS011;4185;41.506;24.938;2023-06-19T11:35:47;4.80;;;4.40;;
8293;SDS011;4185;41.506;24.938;2023-06-19T11:38:18;5.47;;;4.50;;
8293;SDS011;4185;41.506;24.938;2023-06-19T11:40:46;5.35;;;4.85;;
8293;SDS011;4185;41.506;24.938;2023-06-19T11:43:23;5.37;;;4.70;;
8293;SDS011;4185;41.506;24.938;2023-06-19T11:45:50;5.30;;;4.80;;
8293;SDS011;4185;41.506;24.938;2023-06-19T11:48:25;6.95;;;5.60;;
8293;SDS011;4185;41.506;24.938;2023-06-19T11:50:52;5.63;;;5.13;;
8293;SDS011;4185;41.506;24.938;2023-06-19T11:53:21;6.00;;;5.40;;
8293;SDS011;4185;41.506;24.938;2023-06-19T11:55:49;6.03;;;5.13;;
8293;SDS011;4185;41.506;24.938;2023-06-19T11:58:15;5.90;;;5.30;;
8293;SDS011;4185;41.506;24.938;2023-06-19T12:00:43;5.80;;;5.17;;
8293;SDS011;4185;41.506;24.938;2023-06-19T12:03:10;6.03;;;5.35;;
8293;SDS011;4185;41.506;24.938;2023-06-19T12:05:38;5.85;;;5.18;;
8293;SDS011;4185;41.506;24.938;2023-06-19T12:08:05;5.93;;;5.32;;
8293;SDS011;4185;41.506;24.938;2023-06-19T12:10:32;5.53;;;5.00;;
8293;SDS011;4185;41.506;24.938;2023-06-19T12:12:59;5.60;;;5.07;;
8293;SDS011;4185;41.506;24.938;2023-06-19T12:15:25;5.40;;;4.80;;
8293;SDS011;4185;41.506;24.938;2023-06-19T12:17:53;7.40;;;4.95;;
8293;SDS011;4185;41.506;24.938;2023-06-19T12:20:22;5.03;;;4.53;;
8293;SDS011;4185;41.506;24.938;2023-06-19T12:22:51;5.85;;;4.30;;
8293;SDS011;4185;41.506;24.938;2023-06-19T12:25:18;5.90;;;4.70;;
8293;SDS011;4185;41.506;24.938;2023-06-19T12:27:45;5.65;;;5.00;;
8293;SDS011;4185;41.506;24.938;2023-06-19T12:30:12;6.03;;;4.82;;
8293;SDS011;4185;41.506;24.938;2023-06-19T12:32:39;6.93;;;5.78;;
8293;SDS011;4185;41.506;24.938;2023-06-19T12:35:06;6.78;;;5.15;;
8293;SDS011;4185;41.506;24.938;2023-06-19T12:37:33;5.63;;;4.97;;
8293;SDS011;4185;41.506;24.938;2023-06-19T12:40:02;5.97;;;5.07;;
8293;SDS011;4185;41.506;24.938;2023-06-19T12:42:33;5.03;;;4.63;;
8293;SDS011;4185;41.506;24.938;2023-06-19T12:45:01;4.88;;;4.38;;
8293;SDS011;4185;41.506;24.938;2023-06-19T12:47:28;5.43;;;4.93;;
8293;SDS011;4185;41.506;24.938;2023-06-19T12:49:54;6.10;;;5.15;;
8293;SDS011;4185;41.506;24.938;2023-06-19T12:52:21;5.22;;;4.65;;
8293;SDS011;4185;41.506;24.938;2023-06-19T12:54:48;5.65;;;4.80;;
8293;SDS011;4185;41.506;24.938;2023-06-19T12:57:16;5.45;;;4.95;;
8293;SDS011;4185;41.506;24.938;2023-06-19T12:59:43;7.30;;;4.88;;
8293;SDS011;4185;41.506;24.938;2023-06-19T13:02:09;5.47;;;4.97;;
8293;SDS011;4185;41.506;24.938;2023-06-19T13:04:36;6.15;;;5.28;;
8293;SDS011;4185;41.506;24.938;2023-06-19T13:07:03;7.55;;;5.28;;
8293;SDS011;4185;41.506;24.938;2023-06-19T13:09:30;5.85;;;4.82;;
8293;SDS011;4185;41.506;24.938;2023-06-19T13:11:57;5.22;;;4.72;;
8293;SDS011;4185;41.506;24.938;2023-06-19T13:14:25;5.53;;;5.03;;
8293;SDS011;4185;41.506;24.938;2023-06-19T13:16:52;5.85;;;4.88;;
8293;SDS011;4185;41.506;24.938;2023-06-19T13:19:18;5.82;;;5.10;;
8293;SDS011;4185;41.506;24.938;2023-06-19T13:21:45;5.55;;;4.90;;
8293;SDS011;4185;41.506;24.938;2023-06-19T13:24:14;5.95;;;4.70;;
8293;SDS011;4185;41.506;24.938;2023-06-19T13:26:42;6.65;;;4.78;;
8293;SDS011;4185;41.506;24.938;2023-06-19T13:29:09;5.90;;;5.13;;
8293;SDS011;4185;41.506;24.938;2023-06-19T13:31:39;4.65;;;4.25;;
8293;SDS011;4185;41.506;24.938;2023-06-19T13:34:06;5.30;;;4.63;;
8293;SDS011;4185;41.506;24.938;2023-06-19T13:36:34;5.18;;;4.68;;
8293;SDS011;4185;41.506;24.938;2023-06-19T13:39:00;5.95;;;4.80;;
8293;SDS011;4185;41.506;24.938;2023-06-19T13:41:27;5.05;;;4.55;;
8293;SDS011;4185;41.506;24.938;2023-06-19T13:43:56;5.30;;;4.80;;
8293;SDS011;4185;41.506;24.938;2023-06-19T13:46:23;5.20;;;4.70;;
8293;SDS011;4185;41.506;24.938;2023-06-19T13:48:51;4.72;;;4.32;;
8293;SDS011;4185;41.506;24.938;2023-06-19T13:51:18;5.97;;;4.78;;
8293;SDS011;4185;41.506;24.938;2023-06-19T13:53:45;7.75;;;4.88;;
8293;SDS011;4185;41.506;24.938;2023-06-19T13:56:11;5.03;;;4.53;;
8293;SDS011;4185;41.506;24.938;2023-06-19T13:58:39;6.18;;;4.40;;
8293;SDS011;4185;41.506;24.938;2023-06-19T14:01:05;5.30;;;4.80;;
8293;SDS011;4185;41.506;24.938;2023-06-19T14:03:32;5.18;;;4.63;;
8293;SDS011;4185;41.506;24.938;2023-06-19T14:06:00;6.15;;;4.20;;
8293;SDS011;4185;41.506;24.938;2023-06-19T14:08:27;5.10;;;4.60;;
8293;SDS011;4185;41.506;24.938;2023-06-19T14:10:55;4.57;;;4.18;;
8293;SDS011;4185;41.506;24.938;2023-06-19T14:13:23;4.72;;;4.28;;
8293;SDS011;4185;41.506;24.938;2023-06-19T14:15:49;5.68;;;4.20;;
8293;SDS011;4185;41.506;24.938;2023-06-19T14:18:17;8.45;;;5.00;;
8293;SDS011;4185;41.506;24.938;2023-06-19T14:20:44;5.15;;;4.57;;
8293;SDS011;4185;41.506;24.938;2023-06-19T14:23:12;5.00;;;4.50;;
8293;SDS011;4185;41.506;24.938;2023-06-19T14:25:39;5.68;;;4.70;;
8293;SDS011;4185;41.506;24.938;2023-06-19T14:28:06;7.45;;;4.30;;
8293;SDS011;4185;41.506;24.938;2023-06-19T14:30:32;6.38;;;4.70;;
8293;SDS011;4185;41.506;24.938;2023-06-19T14:32:59;6.90;;;4.40;;
8293;SDS011;4185;41.506;24.938;2023-06-19T14:35:26;7.75;;;4.95;;
8293;SDS011;4185;41.506;24.938;2023-06-19T14:37:53;6.15;;;4.72;;
8293;SDS011;4185;41.506;24.938;2023-06-19T14:40:22;4.68;;;4.28;;
8293;SDS011;4185;41.506;24.938;2023-06-19T14:42:48;4.47;;;4.05;;
8293;SDS011;4185;41.506;24.938;2023-06-19T14:45:15;6.43;;;4.32;;
8293;SDS011;4185;41.506;24.938;2023-06-19T14:47:42;5.03;;;4.53;;
8293;SDS011;4185;41.506;24.938;2023-06-19T14:50:09;4.70;;;4.18;;
8293;SDS011;4185;41.506;24.938;2023-06-19T14:52:36;4.70;;;4.30;;
8293;SDS011;4185;41.506;24.938;2023-06-19T14:55:03;4.95;;;4.55;;
8293;SDS011;4185;41.506;24.938;2023-06-19T14:57:35;4.80;;;4.32;;
8293;SDS011;4185;41.506;24.938;2023-06-19T15:00:03;5.20;;;4.70;;
8293;SDS011;4185;41.506;24.938;2023-06-19T15:02:30;5.47;;;4.57;;